createdAt,value
2022-07-30T00:01:41.559Z,100998.11
2022-07-30T00:04:10.821Z,100996.54
2022-07-30T00:06:40.178Z,100989.60
2022-07-30T00:09:09.467Z,100988.58
2022-07-30T00:11:38.632Z,100991.46
2022-07-30T00:14:07.688Z,100989.20
2022-07-30T00:16:36.910Z,100989.84
2022-07-30T00:19:08.870Z,100992.16
2022-07-30T00:21:39.186Z,100995.04
2022-07-30T00:24:10.448Z,100998.66
2022-07-30T00:26:39.581Z,100997.65
2022-07-30T00:29:08.857Z,100996.91
2022-07-30T00:31:40.056Z,100997.11
2022-07-30T00:34:09.232Z,100994.23
2022-07-30T00:36:38.327Z,100987.17
2022-07-30T00:39:10.196Z,100985.19
2022-07-30T00:41:39.330Z,100984.75
2022-07-30T00:44:08.449Z,100982.66
2022-07-30T00:46:37.675Z,100984.69
2022-07-30T00:49:06.961Z,100977.52
2022-07-30T00:51:39.526Z,100976.35
2022-07-30T00:54:08.678Z,100974.30
2022-07-30T00:56:37.979Z,100974.08
2022-07-30T00:59:09.127Z,100968.35
2022-07-30T01:01:40.391Z,100968.90
2022-07-30T01:04:13.692Z,100968.20
2022-07-30T01:06:42.866Z,100966.98
2022-07-30T01:09:12.107Z,100969.50
2022-07-30T01:11:41.286Z,100972.11
2022-07-30T01:14:10.432Z,100970.77
2022-07-30T01:16:39.719Z,100969.91
2022-07-30T01:19:26.818Z,100964.30
2022-07-30T01:21:58.097Z,100953.77
2022-07-30T01:24:29.718Z,100949.55
2022-07-30T01:26:59.093Z,100943.88
2022-07-30T01:29:30.366Z,100945.90
2022-07-30T01:32:02.412Z,100942.69
2022-07-30T01:34:31.748Z,100933.26
2022-07-30T01:37:01.382Z,100931.24
2022-07-30T01:39:32.907Z,100928.31
2022-07-30T01:42:07.423Z,100931.05
2022-07-30T01:44:36.857Z,100938.27
2022-07-30T01:47:06.122Z,100942.41
2022-07-30T01:49:35.431Z,100945.91
2022-07-30T01:52:04.845Z,100947.95
2022-07-30T01:54:34.102Z,100949.77
2022-07-30T01:57:05.448Z,100945.59
2022-07-30T01:59:34.817Z,100944.27
2022-07-30T02:02:06.449Z,100941.77
2022-07-30T02:04:35.730Z,100942.04
2022-07-30T02:07:05.143Z,100943.40
2022-07-30T02:09:36.475Z,100936.14
2022-07-30T02:12:27.713Z,100948.36
2022-07-30T02:14:59.489Z,100948.98
2022-07-30T02:17:34.714Z,100943.60
2022-07-30T02:20:11.120Z,100940.08
2022-07-30T02:22:45.240Z,100940.52
2022-07-30T02:25:14.565Z,100932.59
2022-07-30T02:27:43.924Z,100928.17
2022-07-30T02:30:15.476Z,100921.32
2022-07-30T02:32:47.567Z,100921.20
2022-07-30T02:35:16.790Z,100921.36
2022-07-30T02:37:46.055Z,100924.16
2022-07-30T02:40:15.438Z,100924.16
2022-07-30T02:42:44.768Z,100928.02
2022-07-30T02:45:19.810Z,100921.73
2022-07-30T02:47:49.132Z,100915.91
2022-07-30T02:50:18.362Z,100919.48
2022-07-30T02:52:47.671Z,100919.57
2022-07-30T02:55:16.973Z,100905.27
2022-07-30T02:57:46.301Z,100906.41
2022-07-30T03:00:15.658Z,100898.55
2022-07-30T03:02:47.742Z,100894.01
2022-07-30T03:05:18.414Z,100889.49
2022-07-30T03:07:47.720Z,100889.70
2022-07-30T03:10:17.038Z,100885.98
2022-07-30T03:12:48.852Z,100886.31
2022-07-30T03:15:18.095Z,100888.99
2022-07-30T03:17:49.801Z,100887.44
2022-07-30T03:20:19.193Z,100880.61
2022-07-30T03:22:48.427Z,100881.17
2022-07-30T03:25:20.011Z,100877.52
2022-07-30T03:27:49.243Z,100877.77
2022-07-30T03:30:21.052Z,100871.42
2022-07-30T03:32:50.443Z,100865.46
2022-07-30T03:35:25.213Z,100861.77
2022-07-30T03:37:57.588Z,100859.83
2022-07-30T03:40:29.141Z,100864.41
2022-07-30T03:43:00.533Z,100864.59
2022-07-30T03:45:29.817Z,100862.39
2022-07-30T03:48:04.420Z,100870.59
2022-07-30T03:50:37.153Z,100872.61
2022-07-30T03:53:08.866Z,100872.16
2022-07-30T03:55:49.811Z,100872.98
2022-07-30T03:58:37.642Z,100870.14
2022-07-30T04:01:09.330Z,100876.18
2022-07-30T04:03:40.738Z,100875.20
2022-07-30T04:06:10.067Z,100873.75
2022-07-30T04:08:39.689Z,100873.55
2022-07-30T04:11:09.156Z,100875.66
2022-07-30T04:14:11.298Z,100878.09
2022-07-30T04:16:47.184Z,100880.73
2022-07-30T04:19:19.482Z,100885.04
2022-07-30T04:21:51.352Z,100885.58
2022-07-30T04:24:20.880Z,100885.65
2022-07-30T04:26:50.288Z,100887.61
2022-07-30T04:29:24.689Z,100889.73
2022-07-30T04:31:57.063Z,100884.73
2022-07-30T04:34:46.356Z,100889.11
2022-07-30T04:37:18.287Z,100888.05
2022-07-30T04:39:51.986Z,100890.80
2022-07-30T04:42:21.317Z,100886.06
2022-07-30T04:45:04.260Z,100885.19
2022-07-30T04:47:43.051Z,100883.59
2022-07-30T04:50:32.623Z,100881.60
2022-07-30T04:53:02.228Z,100878.97
2022-07-30T04:55:38.013Z,100873.05
2022-07-30T04:58:09.570Z,100864.92
2022-07-30T05:00:41.632Z,100864.20
2022-07-30T05:03:18.094Z,100862.68
2022-07-30T05:05:57.442Z,100860.53
2022-07-30T05:08:33.817Z,100863.80
2022-07-30T05:11:07.393Z,100864.55
2022-07-30T05:13:39.860Z,100865.70
2022-07-30T05:16:13.740Z,100861.61
2022-07-30T05:18:43.133Z,100860.58
2022-07-30T05:21:14.780Z,100860.32
2022-07-30T05:23:51.888Z,100864.10
2022-07-30T05:26:27.711Z,100863.23
2022-07-30T05:28:59.327Z,100866.29
2022-07-30T05:31:34.536Z,100863.11
2022-07-30T05:34:06.049Z,100860.73
2022-07-30T05:36:46.470Z,100864.79
2022-07-30T05:39:18.566Z,100861.98
2022-07-30T05:42:00.093Z,100867.63
2022-07-30T05:44:39.098Z,100864.64
2022-07-30T05:47:08.438Z,100863.89
2022-07-30T05:49:38.173Z,100863.42
2022-07-30T05:52:10.485Z,100864.16
2022-07-30T05:54:39.908Z,100864.36
2022-07-30T05:57:47.128Z,100863.76
2022-07-30T06:00:16.443Z,100862.70
2022-07-30T06:02:53.494Z,100864.95
2022-07-30T06:05:29.032Z,100869.75
2022-07-30T06:08:01.084Z,100871.10
2022-07-30T06:10:31.428Z,100870.67
2022-07-30T06:13:01.286Z,100869.34
2022-07-30T06:15:31.303Z,100870.12
2022-07-30T06:18:02.353Z,100867.97
2022-07-30T06:20:42.333Z,100866.37
2022-07-30T06:23:24.287Z,100867.48
2022-07-30T06:26:23.002Z,100866.23
2022-07-30T06:28:53.428Z,100867.02
2022-07-30T06:31:28.319Z,100871.52
2022-07-30T06:33:57.566Z,100871.08
2022-07-30T06:36:30.923Z,100872.58
2022-07-30T06:39:03.161Z,100875.13
2022-07-30T06:41:52.570Z,100873.34
2022-07-30T06:44:21.991Z,100874.90
2022-07-30T06:47:08.389Z,100874.30
2022-07-30T06:49:39.917Z,100872.26
2022-07-30T06:52:15.646Z,100870.10
2022-07-30T06:54:50.246Z,100866.24
2022-07-30T06:57:30.637Z,100868.42
2022-07-30T07:00:00.533Z,100866.81
2022-07-30T07:02:39.669Z,100868.70
2022-07-30T07:05:12.489Z,100868.13
2022-07-30T07:07:52.456Z,100872.26
2022-07-30T07:10:29.163Z,100869.39
2022-07-30T07:13:18.736Z,100869.02
2022-07-30T07:15:48.433Z,100869.05
2022-07-30T07:18:21.579Z,100862.17
2022-07-30T07:21:08.699Z,100860.52
2022-07-30T07:23:41.802Z,100860.45
2022-07-30T07:26:32.045Z,100860.60
2022-07-30T07:29:05.099Z,100859.55
2022-07-30T07:32:05.050Z,100857.40
2022-07-30T07:34:25.673Z,100851.70
2022-07-30T07:36:55.866Z,100850.63
2022-07-30T07:39:25.783Z,100850.67
2022-07-30T07:41:55.341Z,100847.26
2022-07-30T07:44:26.176Z,100843.90
2022-07-30T07:46:55.554Z,100841.60
2022-07-30T07:49:27.451Z,100843.10
2022-07-30T07:51:56.868Z,100836.45
2022-07-30T07:54:26.129Z,100840.15
2022-07-30T07:56:57.720Z,100841.27
2022-07-30T07:59:40.012Z,100839.20
2022-07-30T08:02:27.875Z,100840.96
2022-07-30T08:05:03.294Z,100838.44
2022-07-30T08:07:49.486Z,100839.01
2022-07-30T08:10:19.477Z,100840.36
2022-07-30T08:13:48.468Z,100841.81
2022-07-30T08:16:19.631Z,100842.61
2022-07-30T08:19:18.134Z,100834.83
2022-07-30T08:21:53.665Z,100836.21
2022-07-30T08:24:23.851Z,100838.33
2022-07-30T08:26:53.870Z,100830.48
2022-07-30T08:29:23.677Z,100829.89
2022-07-30T08:31:53.548Z,100828.29
2022-07-30T08:34:26.228Z,100825.00
2022-07-30T08:36:57.374Z,100822.96
2022-07-30T08:39:27.789Z,100822.27
2022-07-30T08:41:56.989Z,100820.92
2022-07-30T08:44:26.091Z,100821.21
2022-07-30T08:46:56.728Z,100824.80
2022-07-30T08:49:44.621Z,100821.16
2022-07-30T08:52:18.838Z,100820.02
2022-07-30T08:54:55.908Z,100817.73
2022-07-30T08:57:25.165Z,100819.48
2022-07-30T09:00:00.062Z,100817.73
2022-07-30T09:02:31.180Z,100817.83
2022-07-30T09:05:04.335Z,100819.45
2022-07-30T09:07:35.035Z,100818.95
2022-07-30T09:10:05.321Z,100820.71
2022-07-30T09:12:35.511Z,100822.40
2022-07-30T09:15:05.022Z,100823.73
2022-07-30T09:17:34.311Z,100821.82
2022-07-30T09:20:04.060Z,100821.16
2022-07-30T09:22:35.440Z,100822.27
2022-07-30T09:25:24.460Z,100823.30
2022-07-30T09:28:15.759Z,100823.73
2022-07-30T09:31:04.782Z,100824.11
2022-07-30T09:33:52.497Z,100820.93
2022-07-30T09:36:41.715Z,100818.27
2022-07-30T09:39:37.451Z,100813.59
2022-07-30T09:42:17.210Z,100815.74
2022-07-30T09:44:47.242Z,100818.36
2022-07-30T09:47:16.861Z,100817.38
2022-07-30T09:49:47.264Z,100820.06
2022-07-30T09:52:17.183Z,100816.03
2022-07-30T09:54:56.615Z,100820.26
2022-07-30T09:57:30.205Z,100818.58
2022-07-30T10:00:02.972Z,100822.50
2022-07-30T10:02:44.236Z,100816.18
2022-07-30T10:05:40.434Z,100817.48
2022-07-30T10:08:16.730Z,100813.96
2022-07-30T10:10:50.934Z,100814.65
2022-07-30T10:13:21.167Z,100813.91
2022-07-30T10:15:51.633Z,100815.08
2022-07-30T10:18:21.293Z,100812.02
2022-07-30T10:21:11.462Z,100812.81
2022-07-30T10:24:09.952Z,100811.33
2022-07-30T10:26:54.288Z,100811.91
2022-07-30T10:29:42.793Z,100805.67
2022-07-30T10:32:12.477Z,100811.04
2022-07-30T10:34:43.938Z,100811.77
2022-07-30T10:37:13.343Z,100813.65
2022-07-30T10:39:42.708Z,100809.25
2022-07-30T10:42:12.059Z,100815.17
2022-07-30T10:44:41.230Z,100818.48
2022-07-30T10:47:10.777Z,100825.20
2022-07-30T10:49:41.017Z,100829.66
2022-07-30T10:52:12.451Z,100833.88
2022-07-30T10:54:42.248Z,100834.40
2022-07-30T10:57:14.900Z,100843.11
2022-07-30T10:59:52.161Z,100841.50
2022-07-30T11:02:21.416Z,100839.98
2022-07-30T11:04:52.079Z,100838.14
2022-07-30T11:07:24.091Z,100839.09
2022-07-30T11:10:05.542Z,100836.06
2022-07-30T11:12:38.747Z,100839.23
2022-07-30T11:15:18.953Z,100838.73
2022-07-30T11:17:49.186Z,100835.48
2022-07-30T11:20:21.246Z,100836.05
2022-07-30T11:22:54.347Z,100836.70
2022-07-30T11:25:23.501Z,100831.77
2022-07-30T11:27:52.659Z,100832.24
2022-07-30T11:30:23.351Z,100834.02
2022-07-30T11:32:53.062Z,100834.19
2022-07-30T11:35:23.650Z,100836.96
2022-07-30T11:37:53.115Z,100834.64
2022-07-30T11:40:26.135Z,100834.20
2022-07-30T11:42:56.088Z,100836.98
2022-07-30T11:45:29.661Z,100837.66
2022-07-30T11:48:00.478Z,100840.00
2022-07-30T11:50:29.793Z,100836.55
2022-07-30T11:52:59.487Z,100839.77
2022-07-30T11:55:28.797Z,100837.59
2022-07-30T11:57:57.990Z,100839.58
2022-07-30T12:00:27.267Z,100847.77
2022-07-30T12:02:58.812Z,100850.32
2022-07-30T12:05:30.555Z,100852.27
2022-07-30T12:08:00.316Z,100851.04
2022-07-30T12:10:29.931Z,100851.52
2022-07-30T12:13:00.331Z,100855.30
2022-07-30T12:15:29.802Z,100850.06
2022-07-30T12:18:24.321Z,100860.61
2022-07-30T12:20:48.366Z,100857.38
2022-07-30T12:23:21.559Z,100856.83
2022-07-30T12:25:51.781Z,100860.98
2022-07-30T12:28:21.283Z,100862.27
2022-07-30T12:30:50.559Z,100864.43
2022-07-30T12:33:19.852Z,100867.63
2022-07-30T12:35:49.054Z,100872.11
2022-07-30T12:40:53.829Z,100860.58
2022-07-30T12:43:23.073Z,100858.05
2022-07-30T12:45:54.249Z,100855.85
2022-07-30T12:48:24.484Z,100853.00
2022-07-30T12:50:53.701Z,100852.73
2022-07-30T12:53:24.707Z,100851.40
2022-07-30T12:55:54.054Z,100852.77
2022-07-30T12:58:23.368Z,100854.38
2022-07-30T13:00:53.127Z,100860.06
2022-07-30T13:03:22.338Z,100858.89
2022-07-30T13:05:51.540Z,100854.52
2022-07-30T13:08:25.216Z,100862.19
2022-07-30T13:10:54.612Z,100859.10
2022-07-30T13:13:24.155Z,100860.52
2022-07-30T13:15:54.060Z,100860.15
2022-07-30T13:18:23.819Z,100853.63
2022-07-30T13:20:53.054Z,100855.22
2022-07-30T13:23:22.311Z,100851.98
2022-07-30T13:25:51.750Z,100850.16
2022-07-30T13:28:20.976Z,100851.66
2022-07-30T13:30:50.213Z,100849.30
2022-07-30T13:33:19.612Z,100848.95
2022-07-30T13:35:48.885Z,100850.64
2022-07-30T13:38:18.113Z,100850.65
2022-07-30T13:40:47.382Z,100849.31
2022-07-30T13:43:16.550Z,100847.59
2022-07-30T13:45:45.864Z,100847.27
2022-07-30T13:48:15.471Z,100844.77
2022-07-30T13:50:45.666Z,100846.63
2022-07-30T13:53:14.868Z,100846.97
2022-07-30T13:55:44.873Z,100842.69
2022-07-30T13:58:14.130Z,100845.25
2022-07-30T14:00:45.512Z,100843.88
2022-07-30T14:03:14.682Z,100842.92
2022-07-30T14:05:43.861Z,100841.66
2022-07-30T14:08:13.163Z,100838.88
2022-07-30T14:10:42.309Z,100848.99
2022-07-30T14:13:16.014Z,100848.95
2022-07-30T14:15:50.906Z,100844.45
2022-07-30T14:18:20.099Z,100845.10
2022-07-30T14:20:49.774Z,100846.43
2022-07-30T14:23:19.031Z,100842.42
2022-07-30T14:25:48.209Z,100835.99
2022-07-30T14:28:17.682Z,100832.53
2022-07-30T14:30:47.037Z,100828.60
2022-07-30T14:33:16.382Z,100828.44
2022-07-30T14:35:45.704Z,100832.58
2022-07-30T14:38:15.043Z,100834.57
2022-07-30T14:40:44.363Z,100831.31
2022-07-30T14:43:15.055Z,100827.85
2022-07-30T14:45:44.263Z,100826.25
2022-07-30T14:48:13.538Z,100825.84
2022-07-30T14:50:57.203Z,100826.75
2022-07-30T14:53:31.976Z,100822.00
2022-07-30T14:56:01.098Z,100822.00
2022-07-30T14:58:30.412Z,100827.59
2022-07-30T15:01:00.143Z,100828.35
2022-07-30T15:03:45.404Z,100825.95
2022-07-30T15:06:15.552Z,100822.83
2022-07-30T15:08:46.227Z,100820.65
2022-07-30T15:11:15.673Z,100821.17
2022-07-30T15:13:50.192Z,100822.70
2022-07-30T15:16:20.418Z,100826.38
2022-07-30T15:18:49.856Z,100824.88
2022-07-30T15:21:19.040Z,100822.76
2022-07-30T15:23:48.381Z,100822.21
2022-07-30T15:26:17.589Z,100822.05
2022-07-30T15:28:46.800Z,100825.85
2022-07-30T15:31:16.002Z,100824.50
2022-07-30T15:33:45.227Z,100822.86
2022-07-30T15:36:14.676Z,100821.29
2022-07-30T15:38:43.904Z,100818.53
2022-07-30T15:41:15.561Z,100823.42
2022-07-30T15:43:44.880Z,100823.20
2022-07-30T15:46:14.318Z,100822.98
2022-07-30T15:48:43.523Z,100823.21
2022-07-30T15:51:13.216Z,100817.94
2022-07-30T15:53:42.401Z,100822.98
2022-07-30T15:56:11.637Z,100824.02
2022-07-30T15:58:43.506Z,100823.11
2022-07-30T16:01:13.208Z,100824.73
2022-07-30T16:03:42.468Z,100821.43
2022-07-30T16:06:11.668Z,100822.42
2022-07-30T16:08:40.909Z,100817.63
2022-07-30T16:11:10.946Z,100819.36
2022-07-30T16:13:40.588Z,100821.08
2022-07-30T16:16:09.826Z,100822.08
2022-07-30T16:18:39.159Z,100827.32
2022-07-30T16:21:08.528Z,100829.19
2022-07-30T16:23:39.527Z,100832.10
2022-07-30T16:26:09.046Z,100828.37
2022-07-30T16:28:39.648Z,100832.05
2022-07-30T16:31:09.180Z,100830.71
2022-07-30T16:33:38.513Z,100832.34
2022-07-30T16:36:07.725Z,100833.43
2022-07-30T16:38:37.108Z,100830.01
2022-07-30T16:41:10.370Z,100823.88
2022-07-30T16:43:42.326Z,100825.02
2022-07-30T16:46:12.210Z,100824.69
2022-07-30T16:48:41.445Z,100830.08
2022-07-30T16:51:10.747Z,100829.88
2022-07-30T16:53:41.576Z,100835.76
2022-07-30T16:56:10.859Z,100835.92
2022-07-30T16:58:40.060Z,100836.77
2022-07-30T17:01:09.636Z,100840.34
2022-07-30T17:03:39.071Z,100838.93
2022-07-30T17:06:08.303Z,100834.84
2022-07-30T17:08:37.759Z,100838.30
2022-07-30T17:11:09.044Z,100843.17
2022-07-30T17:13:40.616Z,100842.63
2022-07-30T17:16:10.080Z,100845.08
2022-07-30T17:18:39.422Z,100842.06
2022-07-30T17:21:08.910Z,100841.15
2022-07-30T17:23:39.154Z,100844.47
2022-07-30T17:26:10.607Z,100850.50
2022-07-30T17:28:39.882Z,100851.87
2022-07-30T17:31:09.238Z,100855.02
2022-07-30T17:33:39.150Z,100858.43
2022-07-30T17:36:09.752Z,100855.02
2022-07-30T17:38:39.241Z,100858.51
2022-07-30T17:41:13.096Z,100857.17
2022-07-30T17:43:42.921Z,100857.48
2022-07-30T17:46:12.260Z,100854.61
2022-07-30T17:48:41.517Z,100853.36
2022-07-30T17:51:10.765Z,100854.15
2022-07-30T17:53:40.103Z,100855.06
2022-07-30T17:56:25.523Z,100854.17
2022-07-30T17:58:56.896Z,100854.13
2022-07-30T18:01:26.101Z,100858.13
2022-07-30T18:03:55.530Z,100860.19
2022-07-30T18:06:24.791Z,100861.16
2022-07-30T18:08:54.147Z,100863.79
2022-07-30T18:11:23.266Z,100864.61
2022-07-30T18:13:52.494Z,100866.91
2022-07-30T18:16:21.683Z,100865.42
2022-07-30T18:18:51.013Z,100869.24
2022-07-30T18:21:20.253Z,100870.48
2022-07-30T18:23:49.529Z,100874.29
2022-07-30T18:26:18.705Z,100880.16
2022-07-30T18:28:51.024Z,100880.61
2022-07-30T18:31:20.219Z,100880.83
2022-07-30T18:33:50.018Z,100884.12
2022-07-30T18:36:19.827Z,100883.55
2022-07-30T18:38:51.202Z,100882.42
2022-07-30T18:41:20.476Z,100890.05
2022-07-30T18:43:49.722Z,100890.55
2022-07-30T18:46:18.973Z,100890.21
2022-07-30T18:48:48.997Z,100889.67
2022-07-30T18:51:19.158Z,100888.93
2022-07-30T18:53:48.720Z,100894.21
2022-07-30T18:56:18.112Z,100896.55
2022-07-30T18:58:47.583Z,100899.27
2022-07-30T19:01:18.578Z,100899.65
2022-07-30T19:03:48.009Z,100897.65
2022-07-30T19:06:17.526Z,100898.83
2022-07-30T19:08:51.005Z,100900.00
2022-07-30T19:11:20.591Z,100901.91
2022-07-30T19:13:50.685Z,100900.75
2022-07-30T19:16:21.027Z,100907.83
2022-07-30T19:18:50.387Z,100907.17
2022-07-30T19:21:19.646Z,100910.71
2022-07-30T19:23:48.928Z,100913.67
2022-07-30T19:26:19.264Z,100913.34
2022-07-30T19:28:48.596Z,100915.64
2022-07-30T19:31:18.060Z,100918.25
2022-07-30T19:33:47.254Z,100915.70
2022-07-30T19:36:20.916Z,100920.25
2022-07-30T19:38:50.428Z,100924.17
2022-07-30T19:41:19.829Z,100927.66
2022-07-30T19:43:58.117Z,100924.70
2022-07-30T19:46:28.081Z,100927.89
2022-07-30T19:48:59.027Z,100930.46
2022-07-30T19:52:22.301Z,100928.97
2022-07-30T19:54:19.109Z,100930.04
2022-07-30T19:56:48.649Z,100929.83
2022-07-30T19:59:43.683Z,100932.75
2022-07-30T20:02:09.127Z,100930.36
2022-07-30T20:04:39.987Z,100932.24
2022-07-30T20:07:13.254Z,100932.20
2022-07-30T20:09:44.972Z,100928.71
2022-07-30T20:12:17.998Z,100932.10
2022-07-30T20:14:47.395Z,100927.05
2022-07-30T20:17:18.691Z,100929.70
2022-07-30T20:19:48.864Z,100931.00
2022-07-30T20:22:21.634Z,100927.71
2022-07-30T20:24:55.545Z,100929.08
2022-07-30T20:27:36.643Z,100928.06
2022-07-30T20:30:08.492Z,100926.67
2022-07-30T20:32:39.014Z,100928.66
2022-07-30T20:35:10.831Z,100929.06
2022-07-30T20:37:54.474Z,100928.55
2022-07-30T20:40:24.521Z,100926.80
2022-07-30T20:42:56.430Z,100925.14
2022-07-30T20:45:37.877Z,100927.70
2022-07-30T20:48:17.108Z,100929.49
2022-07-30T20:50:49.249Z,100928.98
2022-07-30T20:53:20.823Z,100928.05
2022-07-30T20:55:50.449Z,100924.22
2022-07-30T20:58:21.008Z,100924.34
2022-07-30T21:00:52.496Z,100924.53
2022-07-30T21:03:21.879Z,100925.73
2022-07-30T21:05:52.742Z,100924.31
2022-07-30T21:08:25.234Z,100920.44
2022-07-30T21:10:55.431Z,100918.96
2022-07-30T21:13:26.241Z,100923.86
2022-07-30T21:16:02.297Z,100922.89
2022-07-30T21:18:33.969Z,100922.05
2022-07-30T21:21:05.438Z,100927.63
2022-07-30T21:23:35.218Z,100925.70
2022-07-30T21:26:10.642Z,100920.14
2022-07-30T21:28:44.336Z,100919.28
2022-07-30T21:31:14.263Z,100916.48
2022-07-30T21:33:43.836Z,100918.77
2022-07-30T21:36:14.970Z,100916.52
2022-07-30T21:38:44.515Z,100917.14
2022-07-30T21:41:14.320Z,100916.26
2022-07-30T21:43:44.981Z,100915.30
2022-07-30T21:46:14.423Z,100918.16
2022-07-30T21:48:44.761Z,100917.02
2022-07-30T21:51:16.051Z,100911.39
2022-07-30T21:53:46.484Z,100912.83
2022-07-30T21:56:16.436Z,100909.52
2022-07-30T21:58:48.574Z,100908.95
2022-07-30T22:01:22.626Z,100906.98
2022-07-30T22:04:01.653Z,100901.98
2022-07-30T22:06:38.059Z,100902.77
2022-07-30T22:09:26.300Z,100897.45
2022-07-30T22:11:57.230Z,100895.64
2022-07-30T22:14:31.404Z,100897.44
2022-07-30T22:17:04.415Z,100895.35
2022-07-30T22:19:33.962Z,100894.57
2022-07-30T22:22:25.854Z,100894.11
2022-07-30T22:24:52.780Z,100890.53
2022-07-30T22:27:22.700Z,100891.95
2022-07-30T22:29:55.724Z,100888.20
2022-07-30T22:32:25.442Z,100886.95
2022-07-30T22:34:55.557Z,100883.75
2022-07-30T22:37:27.123Z,100885.59
2022-07-30T22:40:03.770Z,100879.83
2022-07-30T22:42:36.559Z,100880.84
2022-07-30T22:45:43.528Z,100875.83
2022-07-30T22:48:10.357Z,100874.86
2022-07-30T22:50:40.723Z,100872.31
2022-07-30T22:53:56.942Z,100874.27
2022-07-30T22:56:00.097Z,100870.80
2022-07-30T22:58:30.395Z,100869.77
2022-07-30T23:01:00.640Z,100869.97
2022-07-30T23:03:29.900Z,100866.91
2022-07-30T23:05:59.208Z,100865.15
2022-07-30T23:08:30.997Z,100859.88
2022-07-30T23:11:01.386Z,100863.66
2022-07-30T23:13:31.516Z,100858.73
2022-07-30T23:16:00.799Z,100862.31
2022-07-30T23:18:30.214Z,100862.56
2022-07-30T23:21:00.532Z,100863.45
2022-07-30T23:23:33.750Z,100862.95
2022-07-30T23:26:04.169Z,100861.84
2022-07-30T23:28:33.881Z,100862.30
2022-07-30T23:31:03.904Z,100861.80
2022-07-30T23:33:33.460Z,100861.23
2022-07-30T23:36:03.168Z,100862.88
2022-07-30T23:38:32.489Z,100863.27
2022-07-30T23:41:04.461Z,100862.71
2022-07-30T23:43:33.918Z,100861.61
2022-07-30T23:46:03.278Z,100857.63
2022-07-30T23:48:33.342Z,100860.48
2022-07-30T23:51:02.750Z,100860.63
2022-07-30T23:53:32.016Z,100861.40
2022-07-30T23:56:01.319Z,100863.56
2022-07-30T23:58:30.779Z,100864.10
